sensor_id;sensor_type;location;lat;lon;timestamp;pressure;altitude;pressure_sealevel;temperature;humidity
50087;BME280;35967;50.718;7.050;2024-02-23T00:01:04;98293.53;;;5.61;100.00
50087;BME280;35967;50.718;7.050;2024-02-23T00:11:07;98322.16;;;5.67;100.00
50087;BME280;35967;50.718;7.050;2024-02-23T00:21:12;98345.84;;;5.71;97.61
50087;BME280;35967;50.718;7.050;2024-02-23T00:31:15;98328.50;;;5.59;96.27
50087;BME280;35967;50.718;7.050;2024-02-23T00:41:19;98363.59;;;5.52;95.97
50087;BME280;35967;50.718;7.050;2024-02-23T00:51:22;98379.34;;;5.41;95.81
50087;BME280;35967;50.718;7.050;2024-02-23T01:01:27;98407.72;;;5.32;95.22
50087;BME280;35967;50.718;7.050;2024-02-23T01:11:30;98430.53;;;5.36;93.62
50087;BME280;35967;50.718;7.050;2024-02-23T01:21:35;98426.59;;;5.28;91.56
50087;BME280;35967;50.718;7.050;2024-02-23T01:31:37;98449.00;;;5.19;91.16
50087;BME280;35967;50.718;7.050;2024-02-23T01:41:42;98449.09;;;5.16;90.23
50087;BME280;35967;50.718;7.050;2024-02-23T01:51:45;98461.78;;;5.18;91.01
50087;BME280;35967;50.718;7.050;2024-02-23T02:01:50;98468.47;;;5.22;91.00
50087;BME280;35967;50.718;7.050;2024-02-23T02:11:53;98497.50;;;5.18;90.05
50087;BME280;35967;50.718;7.050;2024-02-23T02:21:58;98483.88;;;5.19;89.34
50087;BME280;35967;50.718;7.050;2024-02-23T02:32:00;98499.16;;;5.19;87.15
50087;BME280;35967;50.718;7.050;2024-02-23T02:42:06;98521.19;;;5.21;86.12
50087;BME280;35967;50.718;7.050;2024-02-23T02:52:09;98532.09;;;5.25;85.87
50087;BME280;35967;50.718;7.050;2024-02-23T03:02:13;98539.19;;;5.17;85.43
50087;BME280;35967;50.718;7.050;2024-02-23T03:12:16;98542.59;;;5.17;84.83
50087;BME280;35967;50.718;7.050;2024-02-23T03:22:21;98535.72;;;5.19;84.65
50087;BME280;35967;50.718;7.050;2024-02-23T03:32:24;98543.75;;;5.09;83.56
50087;BME280;35967;50.718;7.050;2024-02-23T03:42:29;98538.72;;;5.05;82.82
50087;BME280;35967;50.718;7.050;2024-02-23T03:52:32;98535.97;;;5.12;82.12
50087;BME280;35967;50.718;7.050;2024-02-23T04:02:38;98532.91;;;5.02;82.38
50087;BME280;35967;50.718;7.050;2024-02-23T04:12:41;98535.16;;;5.11;83.69
50087;BME280;35967;50.718;7.050;2024-02-23T04:22:46;98526.13;;;5.01;83.42
50087;BME280;35967;50.718;7.050;2024-02-23T04:32:49;98539.63;;;5.04;84.04
50087;BME280;35967;50.718;7.050;2024-02-23T04:42:53;98544.06;;;4.98;84.85
50087;BME280;35967;50.718;7.050;2024-02-23T04:52:56;98547.72;;;4.90;84.59
50087;BME280;35967;50.718;7.050;2024-02-23T05:03:19;98555.56;;;4.84;84.45
50087;BME280;35967;50.718;7.050;2024-02-23T05:13:22;98551.50;;;4.79;84.66
50087;BME280;35967;50.718;7.050;2024-02-23T05:23:27;98545.38;;;4.84;84.85
50087;BME280;35967;50.718;7.050;2024-02-23T05:33:30;98535.34;;;4.80;85.36
50087;BME280;35967;50.718;7.050;2024-02-23T05:43:35;98541.81;;;4.90;85.18
50087;BME280;35967;50.718;7.050;2024-02-23T05:53:38;98536.22;;;4.79;85.65
50087;BME280;35967;50.718;7.050;2024-02-23T06:03:42;98532.31;;;4.68;87.22
50087;BME280;35967;50.718;7.050;2024-02-23T06:13:46;98533.06;;;4.70;88.04
50087;BME280;35967;50.718;7.050;2024-02-23T06:23:51;98528.63;;;4.77;87.51
50087;BME280;35967;50.718;7.050;2024-02-23T06:33:54;98524.63;;;4.95;87.17
50087;BME280;35967;50.718;7.050;2024-02-23T06:43:58;98528.75;;;4.99;86.95
50087;BME280;35967;50.718;7.050;2024-02-23T06:54:01;98531.31;;;4.99;86.66
50087;BME280;35967;50.718;7.050;2024-02-23T07:04:07;98537.16;;;5.01;86.00
50087;BME280;35967;50.718;7.050;2024-02-23T07:14:10;98562.03;;;5.20;85.12
50087;BME280;35967;50.718;7.050;2024-02-23T07:24:17;98557.84;;;5.44;84.27
50087;BME280;35967;50.718;7.050;2024-02-23T07:34:21;98562.50;;;5.80;82.77
50087;BME280;35967;50.718;7.050;2024-02-23T07:44:26;98551.84;;;5.93;80.92
50087;BME280;35967;50.718;7.050;2024-02-23T07:54:29;98549.50;;;6.32;78.03
50087;BME280;35967;50.718;7.050;2024-02-23T08:04:34;98546.59;;;6.42;78.06
50087;BME280;35967;50.718;7.050;2024-02-23T08:14:37;98573.66;;;6.47;77.66
50087;BME280;35967;50.718;7.050;2024-02-23T08:24:42;98557.19;;;6.75;76.73
50087;BME280;35967;50.718;7.050;2024-02-23T08:34:44;98572.63;;;6.94;74.57
50087;BME280;35967;50.718;7.050;2024-02-23T08:44:49;98566.28;;;6.83;75.40
50087;BME280;35967;50.718;7.050;2024-02-23T08:54:52;98589.28;;;6.83;75.79
50087;BME280;35967;50.718;7.050;2024-02-23T09:04:57;98591.31;;;6.97;76.56
50087;BME280;35967;50.718;7.050;2024-02-23T09:15:00;98599.88;;;6.95;74.41
50087;BME280;35967;50.718;7.050;2024-02-23T09:25:06;98609.63;;;7.08;72.65
50087;BME280;35967;50.718;7.050;2024-02-23T09:35:10;98600.78;;;7.36;71.14
50087;BME280;35967;50.718;7.050;2024-02-23T09:45:14;98605.72;;;7.40;72.48
50087;BME280;35967;50.718;7.050;2024-02-23T09:55:21;98616.84;;;7.39;73.53
50087;BME280;35967;50.718;7.050;2024-02-23T10:05:30;98632.75;;;7.25;74.92
50087;BME280;35967;50.718;7.050;2024-02-23T10:15:39;98640.31;;;7.70;77.11
50087;BME280;35967;50.718;7.050;2024-02-23T10:26:06;98617.53;;;7.64;75.71
50087;BME280;35967;50.718;7.050;2024-02-23T10:36:11;98617.72;;;7.99;73.17
50087;BME280;35967;50.718;7.050;2024-02-23T10:46:19;98622.41;;;8.46;67.44
50087;BME280;35967;50.718;7.050;2024-02-23T10:56:23;98642.19;;;8.25;68.94
50087;BME280;35967;50.718;7.050;2024-02-23T11:06:29;98642.22;;;8.24;85.21
50087;BME280;35967;50.718;7.050;2024-02-23T11:16:32;98631.28;;;8.01;76.79
50087;BME280;35967;50.718;7.050;2024-02-23T11:26:38;98622.72;;;8.21;73.50
50087;BME280;35967;50.718;7.050;2024-02-23T11:36:41;98624.75;;;8.70;74.14
50087;BME280;35967;50.718;7.050;2024-02-23T11:46:46;98616.56;;;8.81;69.86
50087;BME280;35967;50.718;7.050;2024-02-23T11:56:49;98608.72;;;8.84;69.34
50087;BME280;35967;50.718;7.050;2024-02-23T12:06:55;98611.66;;;8.94;69.05
50087;BME280;35967;50.718;7.050;2024-02-23T12:16:59;98605.69;;;8.93;66.77
50087;BME280;35967;50.718;7.050;2024-02-23T12:27:03;98606.16;;;10.20;63.64
50087;BME280;35967;50.718;7.050;2024-02-23T12:37:08;98609.41;;;9.74;65.29
50087;BME280;35967;50.718;7.050;2024-02-23T12:47:12;98595.94;;;10.02;65.51
50087;BME280;35967;50.718;7.050;2024-02-23T12:57:15;98611.97;;;9.40;64.68
50087;BME280;35967;50.718;7.050;2024-02-23T13:07:20;98606.13;;;10.37;63.24
50087;BME280;35967;50.718;7.050;2024-02-23T13:17:23;98608.06;;;10.32;62.05
50087;BME280;35967;50.718;7.050;2024-02-23T13:27:27;98602.59;;;10.22;60.93
50087;BME280;35967;50.718;7.050;2024-02-23T13:37:31;98602.53;;;9.41;65.68
50087;BME280;35967;50.718;7.050;2024-02-23T13:47:36;98601.38;;;9.46;65.35
50087;BME280;35967;50.718;7.050;2024-02-23T13:57:39;98602.75;;;9.36;66.13
50087;BME280;35967;50.718;7.050;2024-02-23T14:07:44;98608.06;;;9.15;66.18
50087;BME280;35967;50.718;7.050;2024-02-23T14:17:48;98607.44;;;9.10;70.11
50087;BME280;35967;50.718;7.050;2024-02-23T14:27:53;98600.94;;;8.86;73.41
50087;BME280;35967;50.718;7.050;2024-02-23T14:37:57;98605.69;;;8.93;69.34
50087;BME280;35967;50.718;7.050;2024-02-23T14:48:02;98597.16;;;9.10;68.22
50087;BME280;35967;50.718;7.050;2024-02-23T14:58:06;98601.25;;;8.97;67.81
50087;BME280;35967;50.718;7.050;2024-02-23T15:08:10;98597.47;;;9.04;67.94
50087;BME280;35967;50.718;7.050;2024-02-23T15:18:14;98615.97;;;8.93;64.25
50087;BME280;35967;50.718;7.050;2024-02-23T15:28:18;98611.06;;;9.06;65.09
50087;BME280;35967;50.718;7.050;2024-02-23T15:38:25;98595.66;;;8.89;66.06
50087;BME280;35967;50.718;7.050;2024-02-23T15:48:29;98583.50;;;8.75;66.12
50087;BME280;35967;50.718;7.050;2024-02-23T15:58:33;98581.91;;;8.72;65.85
50087;BME280;35967;50.718;7.050;2024-02-23T16:08:43;98587.56;;;8.61;69.38
50087;BME280;35967;50.718;7.050;2024-02-23T16:18:46;98579.69;;;8.28;73.05
50087;BME280;35967;50.718;7.050;2024-02-23T16:28:51;98571.25;;;8.26;73.90
50087;BME280;35967;50.718;7.050;2024-02-23T16:38:55;98584.56;;;8.15;75.25
50087;BME280;35967;50.718;7.050;2024-02-23T16:49:00;98587.72;;;8.01;74.95
50087;BME280;35967;50.718;7.050;2024-02-23T16:59:04;98596.50;;;7.95;74.35
50087;BME280;35967;50.718;7.050;2024-02-23T17:09:09;98598.75;;;7.84;74.99
50087;BME280;35967;50.718;7.050;2024-02-23T17:19:13;98615.53;;;7.89;74.26
50087;BME280;35967;50.718;7.050;2024-02-23T17:29:18;98623.88;;;7.95;75.31
50087;BME280;35967;50.718;7.050;2024-02-23T17:39:28;98634.25;;;7.92;76.09
50087;BME280;35967;50.718;7.050;2024-02-23T17:49:35;98656.03;;;7.81;78.25
50087;BME280;35967;50.718;7.050;2024-02-23T17:59:38;98668.75;;;7.64;78.38
50087;BME280;35967;50.718;7.050;2024-02-23T18:09:43;98667.47;;;7.53;78.27
50087;BME280;35967;50.718;7.050;2024-02-23T18:19:46;98671.19;;;7.46;79.21
50087;BME280;35967;50.718;7.050;2024-02-23T18:29:51;98661.91;;;7.44;80.02
50087;BME280;35967;50.718;7.050;2024-02-23T18:39:54;98670.03;;;7.33;80.98
50087;BME280;35967;50.718;7.050;2024-02-23T18:49:59;98671.16;;;7.25;81.81
50087;BME280;35967;50.718;7.050;2024-02-23T19:00:33;98697.69;;;7.23;83.49
50087;BME280;35967;50.718;7.050;2024-02-23T19:10:38;98698.28;;;6.41;100.00
50087;BME280;35967;50.718;7.050;2024-02-23T19:20:41;98697.94;;;6.26;100.00
50087;BME280;35967;50.718;7.050;2024-02-23T19:30:46;98710.94;;;6.20;100.00
50087;BME280;35967;50.718;7.050;2024-02-23T19:40:50;98698.34;;;6.15;100.00
50087;BME280;35967;50.718;7.050;2024-02-23T19:50:54;98699.22;;;6.14;100.00
50087;BME280;35967;50.718;7.050;2024-02-23T20:00:58;98711.38;;;6.08;99.50
50087;BME280;35967;50.718;7.050;2024-02-23T20:11:03;98714.97;;;6.02;98.88
50087;BME280;35967;50.718;7.050;2024-02-23T20:21:10;98726.22;;;5.96;97.44
50087;BME280;35967;50.718;7.050;2024-02-23T20:31:15;98718.38;;;6.03;96.78
50087;BME280;35967;50.718;7.050;2024-02-23T20:41:19;98734.78;;;5.94;95.95
50087;BME280;35967;50.718;7.050;2024-02-23T20:51:26;98720.19;;;5.97;96.03
50087;BME280;35967;50.718;7.050;2024-02-23T21:01:30;98736.03;;;6.09;95.00
50087;BME280;35967;50.718;7.050;2024-02-23T21:11:34;98743.94;;;6.01;95.36
50087;BME280;35967;50.718;7.050;2024-02-23T21:21:37;98738.00;;;6.00;94.79
50087;BME280;35967;50.718;7.050;2024-02-23T21:31:41;98743.41;;;5.91;97.08
50087;BME280;35967;50.718;7.050;2024-02-23T21:41:44;98744.13;;;5.95;97.58
50087;BME280;35967;50.718;7.050;2024-02-23T21:51:49;98752.16;;;6.09;97.02
50087;BME280;35967;50.718;7.050;2024-02-23T22:01:52;98748.28;;;5.97;98.06
50087;BME280;35967;50.718;7.050;2024-02-23T22:11:57;98761.91;;;5.98;98.56
50087;BME280;35967;50.718;7.050;2024-02-23T22:22:00;98747.47;;;5.97;98.27
50087;BME280;35967;50.718;7.050;2024-02-23T22:32:05;98754.69;;;5.84;99.00
50087;BME280;35967;50.718;7.050;2024-02-23T22:42:09;98757.25;;;5.84;99.50
50087;BME280;35967;50.718;7.050;2024-02-23T22:52:14;98742.31;;;5.73;99.11
50087;BME280;35967;50.718;7.050;2024-02-23T23:02:17;98742.31;;;5.73;99.37
50087;BME280;35967;50.718;7.050;2024-02-23T23:12:22;98749.53;;;5.60;99.69
50087;BME280;35967;50.718;7.050;2024-02-23T23:22:25;98770.44;;;5.45;98.23
50087;BME280;35967;50.718;7.050;2024-02-23T23:32:29;98756.16;;;5.39;97.84
50087;BME280;35967;50.718;7.050;2024-02-23T23:42:32;98741.22;;;5.53;97.47
50087;BME280;35967;50.718;7.050;2024-02-23T23:52:36;98748.66;;;5.61;97.70
